Bountiful, Colorado
Current Conditions -  °F | °C
As of 6:52 AM on Sunday 23 Nov 2014 (Local Time) from KALS Reporting Station
Overcast Overcast  
Wind Chill: 25°   Ceiling: 7000
Heat Index: 30°   Visibility: 10mi
Dew Point: 21°   Wind: 5mph
Humidity: 69%   Direction: 320°NW
Pressure: 29.71"   Gusts: NA
Location:  37.3121°N, 106.036°W
Report Text: KALS 231352Z AUTO 32004KT 10SM BKN070 OVC085 M01/M06 A2971 RMK AO2 SLP059 T10111061
Loading
Personal Weather Stations






























Interactive Weather Map New forecast layout! Learn more

10-Day Weather Forecast

Advertisements
Track Severe Weather on mobile